Underwood, Indiana
Current Conditions -  °F | °C
As of 9:53 AM on Monday 24 Nov 2014 (Local Time) from KLOU Reporting Station
Overcast Overcast  
Wind Chill: 54°   Ceiling: 2800
Heat Index: 54°   Visibility: 10mi
Dew Point: 48°   Wind: 17mph
Humidity: 80%   Direction: 250°WSW
Pressure: 29.51"   Gusts: 31mph
Location:  38.6°N, 85.77°W
Report Text: KLOU 241453Z 25015G27KT 10SM FEW020 BKN028 OVC070 12/09 A2951 RMK AO2 PK WND 21038/1419 RAE37 SLP989 P0003 60003 T01220089 53061
Loading
Personal Weather Stations






























Interactive Weather Map New forecast layout! Learn more

10-Day Weather Forecast

Advertisements
Track Severe Weather on mobile